sensor_id;sensor_type;location;lat;lon;timestamp;P1;durP1;ratioP1;P2;durP2;ratioP2
7108;SDS011;29079;41.930;25.558;2022-08-01T00:01:39;14.55;;;12.65;;
7108;SDS011;29079;41.930;25.558;2022-08-01T00:04:26;14.88;;;13.00;;
7108;SDS011;29079;41.930;25.558;2022-08-01T00:07:00;13.70;;;12.30;;
7108;SDS011;29079;41.930;25.558;2022-08-01T00:09:31;15.43;;;13.07;;
7108;SDS011;29079;41.930;25.558;2022-08-01T00:12:03;16.08;;;13.35;;
7108;SDS011;29079;41.930;25.558;2022-08-01T00:14:40;15.95;;;14.10;;
7108;SDS011;29079;41.930;25.558;2022-08-01T00:17:16;15.52;;;12.85;;
7108;SDS011;29079;41.930;25.558;2022-08-01T00:19:47;14.35;;;12.85;;
7108;SDS011;29079;41.930;25.558;2022-08-01T00:22:36;14.98;;;13.40;;
7108;SDS011;29079;41.930;25.558;2022-08-01T00:25:14;13.20;;;11.90;;
7108;SDS011;29079;41.930;25.558;2022-08-01T00:27:45;14.13;;;12.68;;
7108;SDS011;29079;41.930;25.558;2022-08-01T00:30:18;15.75;;;12.98;;
7108;SDS011;29079;41.930;25.558;2022-08-01T00:33:02;14.52;;;13.02;;
7108;SDS011;29079;41.930;25.558;2022-08-01T00:35:42;16.08;;;13.85;;
7108;SDS011;29079;41.930;25.558;2022-08-01T00:38:13;15.10;;;13.57;;
7108;SDS011;29079;41.930;25.558;2022-08-01T00:40:46;16.27;;;14.43;;
7108;SDS011;29079;41.930;25.558;2022-08-01T00:43:21;15.30;;;13.80;;
7108;SDS011;29079;41.930;25.558;2022-08-01T00:45:59;16.63;;;13.43;;
7108;SDS011;29079;41.930;25.558;2022-08-01T00:48:31;15.50;;;14.00;;
7108;SDS011;29079;41.930;25.558;2022-08-01T00:51:08;17.67;;;14.20;;
7108;SDS011;29079;41.930;25.558;2022-08-01T00:53:45;13.73;;;12.23;;
7108;SDS011;29079;41.930;25.558;2022-08-01T00:56:23;14.75;;;13.25;;
7108;SDS011;29079;41.930;25.558;2022-08-01T00:58:55;16.52;;;12.90;;
7108;SDS011;29079;41.930;25.558;2022-08-01T01:01:56;14.40;;;12.85;;
7108;SDS011;29079;41.930;25.558;2022-08-01T01:04:43;15.10;;;13.60;;
7108;SDS011;29079;41.930;25.558;2022-08-01T01:07:17;14.93;;;13.43;;
7108;SDS011;29079;41.930;25.558;2022-08-01T01:10:07;14.27;;;12.77;;
7108;SDS011;29079;41.930;25.558;2022-08-01T01:12:47;14.23;;;12.90;;
7108;SDS011;29079;41.930;25.558;2022-08-01T01:15:33;16.63;;;13.45;;
7108;SDS011;29079;41.930;25.558;2022-08-01T01:21:05;14.10;;;12.60;;
7108;SDS011;29079;41.930;25.558;2022-08-01T01:23:58;15.25;;;13.70;;
7108;SDS011;29079;41.930;25.558;2022-08-01T01:26:45;16.67;;;13.10;;
7108;SDS011;29079;41.930;25.558;2022-08-01T01:29:27;17.83;;;13.15;;
7108;SDS011;29079;41.930;25.558;2022-08-01T01:32:25;13.90;;;12.70;;
7108;SDS011;29079;41.930;25.558;2022-08-01T01:35:05;13.60;;;12.45;;
7108;SDS011;29079;41.930;25.558;2022-08-01T01:37:40;12.38;;;11.18;;
7108;SDS011;29079;41.930;25.558;2022-08-01T01:40:13;15.25;;;12.80;;
7108;SDS011;29079;41.930;25.558;2022-08-01T01:42:46;14.32;;;12.93;;
7108;SDS011;29079;41.930;25.558;2022-08-01T01:45:25;15.95;;;11.63;;
7108;SDS011;29079;41.930;25.558;2022-08-01T01:47:59;15.07;;;13.57;;
7108;SDS011;29079;41.930;25.558;2022-08-01T01:50:40;12.68;;;11.48;;
7108;SDS011;29079;41.930;25.558;2022-08-01T01:53:14;12.77;;;11.68;;
7108;SDS011;29079;41.930;25.558;2022-08-01T01:55:51;12.50;;;11.23;;
7108;SDS011;29079;41.930;25.558;2022-08-01T01:58:31;14.25;;;12.88;;
7108;SDS011;29079;41.930;25.558;2022-08-01T02:01:15;12.95;;;11.70;;
7108;SDS011;29079;41.930;25.558;2022-08-01T02:04:10;12.82;;;11.73;;
7108;SDS011;29079;41.930;25.558;2022-08-01T02:06:46;13.55;;;12.15;;
7108;SDS011;29079;41.930;25.558;2022-08-01T02:09:21;13.70;;;12.25;;
7108;SDS011;29079;41.930;25.558;2022-08-01T02:11:58;13.27;;;12.07;;
7108;SDS011;29079;41.930;25.558;2022-08-01T02:14:42;13.07;;;11.90;;
7108;SDS011;29079;41.930;25.558;2022-08-01T02:17:19;13.23;;;11.70;;
7108;SDS011;29079;41.930;25.558;2022-08-01T02:20:10;13.20;;;12.07;;
7108;SDS011;29079;41.930;25.558;2022-08-01T02:22:55;13.18;;;11.88;;
7108;SDS011;29079;41.930;25.558;2022-08-01T02:25:32;12.80;;;11.57;;
7108;SDS011;29079;41.930;25.558;2022-08-01T02:28:31;13.38;;;12.02;;
7108;SDS011;29079;41.930;25.558;2022-08-01T02:31:10;13.95;;;12.45;;
7108;SDS011;29079;41.930;25.558;2022-08-01T02:33:50;13.18;;;11.93;;
7108;SDS011;29079;41.930;25.558;2022-08-01T02:36:25;13.13;;;11.80;;
7108;SDS011;29079;41.930;25.558;2022-08-01T02:39:03;12.30;;;11.00;;
7108;SDS011;29079;41.930;25.558;2022-08-01T02:41:39;14.98;;;12.10;;
7108;SDS011;29079;41.930;25.558;2022-08-01T02:44:21;12.35;;;11.15;;
7108;SDS011;29079;41.930;25.558;2022-08-01T02:47:09;14.02;;;12.70;;
7108;SDS011;29079;41.930;25.558;2022-08-01T02:49:42;15.63;;;11.90;;
7108;SDS011;29079;41.930;25.558;2022-08-01T02:52:21;11.75;;;10.38;;
7108;SDS011;29079;41.930;25.558;2022-08-01T02:55:00;11.98;;;10.95;;
7108;SDS011;29079;41.930;25.558;2022-08-01T02:57:48;11.77;;;10.77;;
7108;SDS011;29079;41.930;25.558;2022-08-01T03:00:29;10.75;;;9.85;;
7108;SDS011;29079;41.930;25.558;2022-08-01T03:03:14;11.05;;;10.05;;
7108;SDS011;29079;41.930;25.558;2022-08-01T03:05:48;11.65;;;10.65;;
7108;SDS011;29079;41.930;25.558;2022-08-01T03:08:19;11.57;;;10.25;;
7108;SDS011;29079;41.930;25.558;2022-08-01T03:10:52;13.63;;;10.60;;
7108;SDS011;29079;41.930;25.558;2022-08-01T03:16:20;10.30;;;9.50;;
7108;SDS011;29079;41.930;25.558;2022-08-01T03:18:59;12.88;;;10.10;;
7108;SDS011;29079;41.930;25.558;2022-08-01T03:21:35;11.13;;;10.20;;
7108;SDS011;29079;41.930;25.558;2022-08-01T03:24:10;11.13;;;10.13;;
7108;SDS011;29079;41.930;25.558;2022-08-01T03:26:54;10.55;;;9.68;;
7108;SDS011;29079;41.930;25.558;2022-08-01T03:29:32;10.95;;;9.85;;
7108;SDS011;29079;41.930;25.558;2022-08-01T03:32:08;11.93;;;9.63;;
7108;SDS011;29079;41.930;25.558;2022-08-01T03:34:57;11.13;;;9.95;;
7108;SDS011;29079;41.930;25.558;2022-08-01T03:37:38;10.38;;;9.38;;
7108;SDS011;29079;41.930;25.558;2022-08-01T03:40:37;10.07;;;9.27;;
7108;SDS011;29079;41.930;25.558;2022-08-01T03:43:12;10.35;;;9.52;;
7108;SDS011;29079;41.930;25.558;2022-08-01T03:45:49;28.95;;;25.85;;
7108;SDS011;29079;41.930;25.558;2022-08-01T03:48:28;13.45;;;11.60;;
7108;SDS011;29079;41.930;25.558;2022-08-01T03:51:03;20.98;;;18.23;;
7108;SDS011;29079;41.930;25.558;2022-08-01T03:53:40;11.40;;;10.40;;
7108;SDS011;29079;41.930;25.558;2022-08-01T03:56:31;11.02;;;10.02;;
7108;SDS011;29079;41.930;25.558;2022-08-01T03:59:06;12.20;;;10.95;;
7108;SDS011;29079;41.930;25.558;2022-08-01T04:01:41;12.15;;;10.35;;
7108;SDS011;29079;41.930;25.558;2022-08-01T04:04:13;11.23;;;10.02;;
7108;SDS011;29079;41.930;25.558;2022-08-01T04:06:46;11.93;;;10.73;;
7108;SDS011;29079;41.930;25.558;2022-08-01T04:09:24;12.02;;;10.07;;
7108;SDS011;29079;41.930;25.558;2022-08-01T04:12:02;13.13;;;10.13;;
7108;SDS011;29079;41.930;25.558;2022-08-01T04:15:06;12.70;;;10.52;;
7108;SDS011;29079;41.930;25.558;2022-08-01T04:17:49;14.52;;;10.30;;
7108;SDS011;29079;41.930;25.558;2022-08-01T04:20:21;20.25;;;10.27;;
7108;SDS011;29079;41.930;25.558;2022-08-01T04:22:52;15.18;;;9.25;;
7108;SDS011;29079;41.930;25.558;2022-08-01T04:25:40;15.38;;;9.90;;
7108;SDS011;29079;41.930;25.558;2022-08-01T04:28:14;11.82;;;9.20;;
7108;SDS011;29079;41.930;25.558;2022-08-01T04:31:06;13.38;;;8.95;;
7108;SDS011;29079;41.930;25.558;2022-08-01T04:33:42;11.68;;;9.02;;
7108;SDS011;29079;41.930;25.558;2022-08-01T04:36:23;8.52;;;7.78;;
7108;SDS011;29079;41.930;25.558;2022-08-01T04:39:14;9.55;;;8.55;;
7108;SDS011;29079;41.930;25.558;2022-08-01T04:41:53;7.50;;;6.53;;
7108;SDS011;29079;41.930;25.558;2022-08-01T04:44:27;11.00;;;8.02;;
7108;SDS011;29079;41.930;25.558;2022-08-01T04:47:00;10.65;;;7.47;;
7108;SDS011;29079;41.930;25.558;2022-08-01T04:49:36;8.85;;;7.65;;
7108;SDS011;29079;41.930;25.558;2022-08-01T04:52:16;7.78;;;6.90;;
7108;SDS011;29079;41.930;25.558;2022-08-01T04:54:52;16.88;;;7.03;;
7108;SDS011;29079;41.930;25.558;2022-08-01T04:57:27;6.65;;;6.05;;
7108;SDS011;29079;41.930;25.558;2022-08-01T04:59:59;9.32;;;7.00;;
7108;SDS011;29079;41.930;25.558;2022-08-01T05:02:32;6.80;;;6.00;;
7108;SDS011;29079;41.930;25.558;2022-08-01T05:05:08;5.50;;;5.03;;
7108;SDS011;29079;41.930;25.558;2022-08-01T05:07:46;10.82;;;6.32;;
7108;SDS011;29079;41.930;25.558;2022-08-01T05:10:24;8.48;;;6.22;;
7108;SDS011;29079;41.930;25.558;2022-08-01T05:12:58;8.73;;;5.68;;
7108;SDS011;29079;41.930;25.558;2022-08-01T05:15:44;5.45;;;4.95;;
7108;SDS011;29079;41.930;25.558;2022-08-01T05:18:16;6.03;;;5.53;;
7108;SDS011;29079;41.930;25.558;2022-08-01T05:20:57;7.82;;;6.07;;
7108;SDS011;29079;41.930;25.558;2022-08-01T05:23:33;9.32;;;5.82;;
7108;SDS011;29079;41.930;25.558;2022-08-01T05:26:11;10.95;;;5.28;;
7108;SDS011;29079;41.930;25.558;2022-08-01T05:28:45;6.38;;;4.88;;
7108;SDS011;29079;41.930;25.558;2022-08-01T05:31:17;4.97;;;4.43;;
7108;SDS011;29079;41.930;25.558;2022-08-01T05:33:48;7.47;;;5.05;;
7108;SDS011;29079;41.930;25.558;2022-08-01T05:38:53;5.88;;;4.13;;
7108;SDS011;29079;41.930;25.558;2022-08-01T05:41:29;12.18;;;6.80;;
7108;SDS011;29079;41.930;25.558;2022-08-01T05:44:01;9.73;;;6.05;;
7108;SDS011;29079;41.930;25.558;2022-08-01T05:46:35;7.20;;;4.78;;
7108;SDS011;29079;41.930;25.558;2022-08-01T05:49:15;5.80;;;4.60;;
7108;SDS011;29079;41.930;25.558;2022-08-01T05:51:47;5.68;;;4.68;;
7108;SDS011;29079;41.930;25.558;2022-08-01T05:54:17;5.82;;;4.80;;
7108;SDS011;29079;41.930;25.558;2022-08-01T05:56:47;6.07;;;4.28;;
7108;SDS011;29079;41.930;25.558;2022-08-01T05:59:19;8.50;;;5.05;;
7108;SDS011;29079;41.930;25.558;2022-08-01T06:01:50;6.10;;;4.25;;
7108;SDS011;29079;41.930;25.558;2022-08-01T06:04:20;8.52;;;4.70;;
7108;SDS011;29079;41.930;25.558;2022-08-01T06:06:51;5.38;;;4.45;;
7108;SDS011;29079;41.930;25.558;2022-08-01T06:09:21;15.88;;;5.30;;
7108;SDS011;29079;41.930;25.558;2022-08-01T06:11:50;6.35;;;4.95;;
7108;SDS011;29079;41.930;25.558;2022-08-01T06:14:22;5.97;;;4.30;;
7108;SDS011;29079;41.930;25.558;2022-08-01T06:16:53;10.32;;;4.25;;
7108;SDS011;29079;41.930;25.558;2022-08-01T06:19:23;6.60;;;4.13;;
7108;SDS011;29079;41.930;25.558;2022-08-01T06:21:54;6.82;;;4.38;;
7108;SDS011;29079;41.930;25.558;2022-08-01T06:24:24;7.75;;;5.10;;
7108;SDS011;29079;41.930;25.558;2022-08-01T06:26:54;5.60;;;4.20;;
7108;SDS011;29079;41.930;25.558;2022-08-01T06:29:26;6.95;;;4.22;;
7108;SDS011;29079;41.930;25.558;2022-08-01T06:34:28;6.07;;;3.53;;
7108;SDS011;29079;41.930;25.558;2022-08-01T06:36:58;6.97;;;3.55;;
7108;SDS011;29079;41.930;25.558;2022-08-01T06:39:34;4.28;;;3.88;;
7108;SDS011;29079;41.930;25.558;2022-08-01T06:42:05;6.05;;;3.33;;
7108;SDS011;29079;41.930;25.558;2022-08-01T06:44:37;6.68;;;3.70;;
7108;SDS011;29079;41.930;25.558;2022-08-01T06:47:07;4.38;;;3.63;;
7108;SDS011;29079;41.930;25.558;2022-08-01T06:49:37;3.97;;;3.53;;
7108;SDS011;29079;41.930;25.558;2022-08-01T06:52:07;6.35;;;3.47;;
7108;SDS011;29079;41.930;25.558;2022-08-01T06:54:38;6.72;;;3.45;;
7108;SDS011;29079;41.930;25.558;2022-08-01T06:57:07;4.65;;;2.97;;
7108;SDS011;29079;41.930;25.558;2022-08-01T06:59:39;6.07;;;2.83;;
7108;SDS011;29079;41.930;25.558;2022-08-01T07:02:21;5.65;;;3.85;;
7108;SDS011;29079;41.930;25.558;2022-08-01T07:04:52;4.78;;;3.22;;
7108;SDS011;29079;41.930;25.558;2022-08-01T07:07:22;9.85;;;3.20;;
7108;SDS011;29079;41.930;25.558;2022-08-01T07:09:55;10.23;;;3.50;;
7108;SDS011;29079;41.930;25.558;2022-08-01T07:12:26;7.10;;;3.22;;
7108;SDS011;29079;41.930;25.558;2022-08-01T07:14:57;8.55;;;4.35;;
7108;SDS011;29079;41.930;25.558;2022-08-01T07:17:27;7.47;;;3.53;;
7108;SDS011;29079;41.930;25.558;2022-08-01T07:19:57;5.22;;;3.28;;
7108;SDS011;29079;41.930;25.558;2022-08-01T07:22:27;6.07;;;3.40;;
7108;SDS011;29079;41.930;25.558;2022-08-01T07:24:58;5.82;;;3.25;;
7108;SDS011;29079;41.930;25.558;2022-08-01T07:27:29;10.32;;;5.03;;
7108;SDS011;29079;41.930;25.558;2022-08-01T07:30:00;5.38;;;4.30;;
7108;SDS011;29079;41.930;25.558;2022-08-01T07:32:30;9.13;;;5.25;;
7108;SDS011;29079;41.930;25.558;2022-08-01T07:35:01;4.03;;;3.22;;
7108;SDS011;29079;41.930;25.558;2022-08-01T07:37:33;7.05;;;3.30;;
7108;SDS011;29079;41.930;25.558;2022-08-01T07:40:17;9.10;;;3.73;;
7108;SDS011;29079;41.930;25.558;2022-08-01T07:42:48;6.05;;;3.05;;
7108;SDS011;29079;41.930;25.558;2022-08-01T07:45:20;7.47;;;2.78;;
7108;SDS011;29079;41.930;25.558;2022-08-01T07:48:01;6.20;;;2.97;;
7108;SDS011;29079;41.930;25.558;2022-08-01T07:50:36;4.25;;;3.58;;
7108;SDS011;29079;41.930;25.558;2022-08-01T07:53:07;9.50;;;3.78;;
7108;SDS011;29079;41.930;25.558;2022-08-01T07:55:39;8.65;;;3.03;;
7108;SDS011;29079;41.930;25.558;2022-08-01T07:58:12;3.95;;;2.67;;
7108;SDS011;29079;41.930;25.558;2022-08-01T08:00:44;3.85;;;3.42;;
7108;SDS011;29079;41.930;25.558;2022-08-01T08:03:14;5.55;;;3.15;;
7108;SDS011;29079;41.930;25.558;2022-08-01T08:05:44;5.13;;;3.08;;
7108;SDS011;29079;41.930;25.558;2022-08-01T08:08:26;5.10;;;3.33;;
7108;SDS011;29079;41.930;25.558;2022-08-01T08:10:56;7.25;;;2.92;;
7108;SDS011;29079;41.930;25.558;2022-08-01T08:13:27;4.47;;;2.88;;
7108;SDS011;29079;41.930;25.558;2022-08-01T08:15:59;4.97;;;3.08;;
7108;SDS011;29079;41.930;25.558;2022-08-01T08:18:29;3.30;;;2.80;;
7108;SDS011;29079;41.930;25.558;2022-08-01T08:20:59;8.02;;;3.00;;
7108;SDS011;29079;41.930;25.558;2022-08-01T08:23:34;5.22;;;3.45;;
7108;SDS011;29079;41.930;25.558;2022-08-01T08:26:22;7.97;;;3.22;;
7108;SDS011;29079;41.930;25.558;2022-08-01T08:28:53;12.93;;;3.28;;
7108;SDS011;29079;41.930;25.558;2022-08-01T08:31:25;6.80;;;3.20;;
7108;SDS011;29079;41.930;25.558;2022-08-01T08:34:15;8.00;;;3.00;;
7108;SDS011;29079;41.930;25.558;2022-08-01T08:36:45;7.38;;;4.03;;
7108;SDS011;29079;41.930;25.558;2022-08-01T08:39:17;7.00;;;3.70;;
7108;SDS011;29079;41.930;25.558;2022-08-01T08:41:48;6.53;;;2.90;;
7108;SDS011;29079;41.930;25.558;2022-08-01T08:44:19;3.22;;;2.80;;
7108;SDS011;29079;41.930;25.558;2022-08-01T08:46:51;6.38;;;3.03;;
7108;SDS011;29079;41.930;25.558;2022-08-01T08:49:26;5.30;;;3.33;;
7108;SDS011;29079;41.930;25.558;2022-08-01T08:52:04;8.07;;;3.17;;
7108;SDS011;29079;41.930;25.558;2022-08-01T08:54:37;7.53;;;2.80;;
7108;SDS011;29079;41.930;25.558;2022-08-01T08:57:08;9.45;;;3.17;;
7108;SDS011;29079;41.930;25.558;2022-08-01T08:59:43;5.60;;;2.75;;
7108;SDS011;29079;41.930;25.558;2022-08-01T09:02:15;5.63;;;3.22;;
7108;SDS011;29079;41.930;25.558;2022-08-01T09:04:46;6.38;;;3.00;;
7108;SDS011;29079;41.930;25.558;2022-08-01T09:07:18;3.97;;;2.95;;
7108;SDS011;29079;41.930;25.558;2022-08-01T09:09:48;8.07;;;2.78;;
7108;SDS011;29079;41.930;25.558;2022-08-01T09:12:19;4.43;;;2.95;;
7108;SDS011;29079;41.930;25.558;2022-08-01T09:14:49;7.20;;;3.08;;
7108;SDS011;29079;41.930;25.558;2022-08-01T09:17:23;3.97;;;3.00;;
7108;SDS011;29079;41.930;25.558;2022-08-01T09:19:54;5.32;;;2.80;;
7108;SDS011;29079;41.930;25.558;2022-08-01T09:22:30;4.95;;;2.90;;
7108;SDS011;29079;41.930;25.558;2022-08-01T09:25:09;3.30;;;3.00;;
7108;SDS011;29079;41.930;25.558;2022-08-01T09:27:48;5.97;;;3.30;;
7108;SDS011;29079;41.930;25.558;2022-08-01T09:30:36;13.48;;;3.15;;
7108;SDS011;29079;41.930;25.558;2022-08-01T09:33:20;7.90;;;3.20;;
7108;SDS011;29079;41.930;25.558;2022-08-01T09:36:13;5.18;;;2.58;;
7108;SDS011;29079;41.930;25.558;2022-08-01T09:38:49;4.50;;;2.65;;
7108;SDS011;29079;41.930;25.558;2022-08-01T09:41:28;6.13;;;3.20;;
7108;SDS011;29079;41.930;25.558;2022-08-01T09:44:10;6.30;;;2.95;;
7108;SDS011;29079;41.930;25.558;2022-08-01T09:46:51;4.85;;;3.25;;
7108;SDS011;29079;41.930;25.558;2022-08-01T09:49:40;6.18;;;3.25;;
7108;SDS011;29079;41.930;25.558;2022-08-01T09:52:19;5.93;;;3.58;;
7108;SDS011;29079;41.930;25.558;2022-08-01T09:54:57;6.05;;;2.70;;
7108;SDS011;29079;41.930;25.558;2022-08-01T09:57:30;3.22;;;2.58;;
7108;SDS011;29079;41.930;25.558;2022-08-01T10:00:03;4.97;;;2.92;;
7108;SDS011;29079;41.930;25.558;2022-08-01T10:02:37;4.70;;;3.20;;
7108;SDS011;29079;41.930;25.558;2022-08-01T10:05:29;9.02;;;3.92;;
7108;SDS011;29079;41.930;25.558;2022-08-01T10:08:06;5.03;;;2.80;;
7108;SDS011;29079;41.930;25.558;2022-08-01T10:10:39;4.97;;;3.60;;
7108;SDS011;29079;41.930;25.558;2022-08-01T10:13:25;5.53;;;2.80;;
7108;SDS011;29079;41.930;25.558;2022-08-01T10:16:05;4.55;;;2.60;;
7108;SDS011;29079;41.930;25.558;2022-08-01T10:18:42;8.15;;;2.72;;
7108;SDS011;29079;41.930;25.558;2022-08-01T10:24:28;2.75;;;2.47;;
7108;SDS011;29079;41.930;25.558;2022-08-01T10:27:29;8.70;;;2.95;;
7108;SDS011;29079;41.930;25.558;2022-08-01T10:30:07;5.68;;;2.38;;
7108;SDS011;29079;41.930;25.558;2022-08-01T10:32:52;4.85;;;3.08;;
7108;SDS011;29079;41.930;25.558;2022-08-01T10:35:24;3.53;;;3.22;;
7108;SDS011;29079;41.930;25.558;2022-08-01T10:38:26;7.40;;;2.83;;
7108;SDS011;29079;41.930;25.558;2022-08-01T10:41:02;6.57;;;2.22;;
7108;SDS011;29079;41.930;25.558;2022-08-01T10:43:38;4.60;;;2.47;;
7108;SDS011;29079;41.930;25.558;2022-08-01T10:46:17;4.47;;;2.45;;
7108;SDS011;29079;41.930;25.558;2022-08-01T10:48:56;4.85;;;2.40;;
7108;SDS011;29079;41.930;25.558;2022-08-01T10:51:31;4.25;;;3.15;;
7108;SDS011;29079;41.930;25.558;2022-08-01T10:54:25;8.73;;;2.35;;
7108;SDS011;29079;41.930;25.558;2022-08-01T10:56:59;3.47;;;2.00;;
7108;SDS011;29079;41.930;25.558;2022-08-01T10:59:31;3.55;;;2.25;;
7108;SDS011;29079;41.930;25.558;2022-08-01T11:02:26;5.68;;;2.67;;
7108;SDS011;29079;41.930;25.558;2022-08-01T11:05:03;3.45;;;2.28;;
7108;SDS011;29079;41.930;25.558;2022-08-01T11:07:44;2.63;;;2.42;;
7108;SDS011;29079;41.930;25.558;2022-08-01T11:10:24;3.67;;;2.55;;
7108;SDS011;29079;41.930;25.558;2022-08-01T11:13:01;5.20;;;3.03;;
7108;SDS011;29079;41.930;25.558;2022-08-01T11:15:39;6.22;;;2.70;;
7108;SDS011;29079;41.930;25.558;2022-08-01T11:18:30;6.82;;;3.08;;
7108;SDS011;29079;41.930;25.558;2022-08-01T11:21:06;6.20;;;3.08;;
7108;SDS011;29079;41.930;25.558;2022-08-01T11:24:01;2.55;;;2.35;;
7108;SDS011;29079;41.930;25.558;2022-08-01T11:26:38;4.32;;;2.42;;
7108;SDS011;29079;41.930;25.558;2022-08-01T11:29:17;5.20;;;2.47;;
7108;SDS011;29079;41.930;25.558;2022-08-01T11:31:50;4.57;;;2.30;;
7108;SDS011;29079;41.930;25.558;2022-08-01T11:37:28;6.22;;;3.13;;
7108;SDS011;29079;41.930;25.558;2022-08-01T11:40:14;4.75;;;2.80;;
7108;SDS011;29079;41.930;25.558;2022-08-01T11:46:00;7.22;;;3.45;;
7108;SDS011;29079;41.930;25.558;2022-08-01T11:48:35;7.20;;;2.95;;
7108;SDS011;29079;41.930;25.558;2022-08-01T11:51:09;7.35;;;3.20;;
7108;SDS011;29079;41.930;25.558;2022-08-01T11:53:53;6.70;;;2.63;;
7108;SDS011;29079;41.930;25.558;2022-08-01T11:56:24;2.80;;;2.60;;
7108;SDS011;29079;41.930;25.558;2022-08-01T11:59:02;5.00;;;2.35;;
7108;SDS011;29079;41.930;25.558;2022-08-01T12:01:45;4.97;;;2.92;;
7108;SDS011;29079;41.930;25.558;2022-08-01T12:04:18;6.43;;;2.67;;
7108;SDS011;29079;41.930;25.558;2022-08-01T12:06:51;5.93;;;3.10;;
7108;SDS011;29079;41.930;25.558;2022-08-01T12:09:23;4.20;;;2.78;;
7108;SDS011;29079;41.930;25.558;2022-08-01T12:11:56;6.90;;;2.92;;
7108;SDS011;29079;41.930;25.558;2022-08-01T12:17:35;10.15;;;3.05;;
7108;SDS011;29079;41.930;25.558;2022-08-01T12:20:31;4.80;;;3.20;;
7108;SDS011;29079;41.930;25.558;2022-08-01T12:23:24;3.20;;;2.90;;
7108;SDS011;29079;41.930;25.558;2022-08-01T12:26:00;7.47;;;3.28;;
7108;SDS011;29079;41.930;25.558;2022-08-01T12:28:38;5.28;;;2.25;;
7108;SDS011;29079;41.930;25.558;2022-08-01T12:31:16;8.30;;;2.97;;
7108;SDS011;29079;41.930;25.558;2022-08-01T12:33:54;6.85;;;2.78;;
7108;SDS011;29079;41.930;25.558;2022-08-01T12:36:27;6.53;;;3.05;;
7108;SDS011;29079;41.930;25.558;2022-08-01T12:38:59;4.13;;;2.60;;
7108;SDS011;29079;41.930;25.558;2022-08-01T12:41:39;3.72;;;2.78;;
7108;SDS011;29079;41.930;25.558;2022-08-01T12:44:19;4.38;;;2.60;;
7108;SDS011;29079;41.930;25.558;2022-08-01T12:46:56;6.32;;;3.65;;
7108;SDS011;29079;41.930;25.558;2022-08-01T12:49:28;2.80;;;2.60;;
7108;SDS011;29079;41.930;25.558;2022-08-01T12:52:00;2.90;;;2.70;;
7108;SDS011;29079;41.930;25.558;2022-08-01T12:57:38;3.00;;;2.67;;
7108;SDS011;29079;41.930;25.558;2022-08-01T13:00:14;7.32;;;3.28;;
7108;SDS011;29079;41.930;25.558;2022-08-01T13:03:00;3.67;;;2.38;;
7108;SDS011;29079;41.930;25.558;2022-08-01T13:05:41;4.05;;;2.90;;
7108;SDS011;29079;41.930;25.558;2022-08-01T13:08:18;6.70;;;3.15;;
7108;SDS011;29079;41.930;25.558;2022-08-01T13:10:59;4.53;;;2.95;;
7108;SDS011;29079;41.930;25.558;2022-08-01T13:13:44;4.90;;;3.08;;
7108;SDS011;29079;41.930;25.558;2022-08-01T13:16:19;2.92;;;2.72;;
7108;SDS011;29079;41.930;25.558;2022-08-01T13:19:16;6.25;;;3.08;;
7108;SDS011;29079;41.930;25.558;2022-08-01T13:22:06;4.30;;;2.80;;
7108;SDS011;29079;41.930;25.558;2022-08-01T13:24:39;6.10;;;3.28;;
7108;SDS011;29079;41.930;25.558;2022-08-01T13:27:19;5.30;;;3.28;;
7108;SDS011;29079;41.930;25.558;2022-08-01T13:30:20;5.80;;;3.35;;
7108;SDS011;29079;41.930;25.558;2022-08-01T13:32:58;2.65;;;2.42;;
7108;SDS011;29079;41.930;25.558;2022-08-01T13:35:33;3.80;;;2.90;;
7108;SDS011;29079;41.930;25.558;2022-08-01T13:38:07;2.95;;;2.72;;
7108;SDS011;29079;41.930;25.558;2022-08-01T13:40:40;7.22;;;2.40;;
7108;SDS011;29079;41.930;25.558;2022-08-01T13:43:25;4.10;;;3.17;;
7108;SDS011;29079;41.930;25.558;2022-08-01T13:46:17;10.93;;;3.67;;
7108;SDS011;29079;41.930;25.558;2022-08-01T13:49:07;12.85;;;3.50;;
7108;SDS011;29079;41.930;25.558;2022-08-01T13:51:47;6.45;;;2.92;;
7108;SDS011;29079;41.930;25.558;2022-08-01T13:54:20;43.17;;;10.65;;
7108;SDS011;29079;41.930;25.558;2022-08-01T13:56:54;5.80;;;3.65;;
7108;SDS011;29079;41.930;25.558;2022-08-01T14:02:01;9.75;;;6.70;;
7108;SDS011;29079;41.930;25.558;2022-08-01T14:04:35;6.78;;;3.75;;
7108;SDS011;29079;41.930;25.558;2022-08-01T14:07:15;4.93;;;2.92;;
7108;SDS011;29079;41.930;25.558;2022-08-01T14:09:49;4.72;;;3.03;;
7108;SDS011;29079;41.930;25.558;2022-08-01T14:12:44;8.48;;;7.68;;
7108;SDS011;29079;41.930;25.558;2022-08-01T14:15:20;4.38;;;3.20;;
7108;SDS011;29079;41.930;25.558;2022-08-01T14:18:07;6.35;;;2.70;;
7108;SDS011;29079;41.930;25.558;2022-08-01T14:20:52;4.88;;;3.15;;
7108;SDS011;29079;41.930;25.558;2022-08-01T14:23:33;5.75;;;5.25;;
7108;SDS011;29079;41.930;25.558;2022-08-01T14:26:17;6.80;;;5.03;;
7108;SDS011;29079;41.930;25.558;2022-08-01T14:29:10;5.32;;;3.70;;
7108;SDS011;29079;41.930;25.558;2022-08-01T14:31:45;4.55;;;4.15;;
7108;SDS011;29079;41.930;25.558;2022-08-01T14:34:24;3.30;;;3.10;;
7108;SDS011;29079;41.930;25.558;2022-08-01T14:36:56;4.38;;;3.35;;
7108;SDS011;29079;41.930;25.558;2022-08-01T14:39:43;4.45;;;3.28;;
7108;SDS011;29079;41.930;25.558;2022-08-01T14:42:22;5.45;;;3.38;;
7108;SDS011;29079;41.930;25.558;2022-08-01T14:44:54;3.78;;;3.40;;
7108;SDS011;29079;41.930;25.558;2022-08-01T14:47:25;3.58;;;3.20;;
7108;SDS011;29079;41.930;25.558;2022-08-01T14:49:58;4.82;;;3.60;;
7108;SDS011;29079;41.930;25.558;2022-08-01T14:52:34;3.17;;;2.97;;
7108;SDS011;29079;41.930;25.558;2022-08-01T14:55:08;3.65;;;3.08;;
7108;SDS011;29079;41.930;25.558;2022-08-01T14:57:42;3.30;;;2.60;;
7108;SDS011;29079;41.930;25.558;2022-08-01T15:00:13;3.15;;;2.95;;
7108;SDS011;29079;41.930;25.558;2022-08-01T15:02:49;6.40;;;3.67;;
7108;SDS011;29079;41.930;25.558;2022-08-01T15:05:37;5.95;;;2.80;;
7108;SDS011;29079;41.930;25.558;2022-08-01T15:08:09;6.88;;;4.05;;
7108;SDS011;29079;41.930;25.558;2022-08-01T15:10:57;6.88;;;4.00;;
7108;SDS011;29079;41.930;25.558;2022-08-01T15:13:29;5.40;;;3.30;;
7108;SDS011;29079;41.930;25.558;2022-08-01T15:16:02;3.75;;;3.42;;
7108;SDS011;29079;41.930;25.558;2022-08-01T15:21:08;5.70;;;4.40;;
7108;SDS011;29079;41.930;25.558;2022-08-01T15:23:49;3.70;;;3.40;;
7108;SDS011;29079;41.930;25.558;2022-08-01T15:26:22;6.32;;;3.53;;
7108;SDS011;29079;41.930;25.558;2022-08-01T15:29:04;8.18;;;3.38;;
7108;SDS011;29079;41.930;25.558;2022-08-01T15:31:38;19.42;;;4.00;;
7108;SDS011;29079;41.930;25.558;2022-08-01T15:34:09;25.85;;;5.65;;
7108;SDS011;29079;41.930;25.558;2022-08-01T15:36:55;69.07;;;9.40;;
7108;SDS011;29079;41.930;25.558;2022-08-01T15:39:28;34.90;;;6.45;;
7108;SDS011;29079;41.930;25.558;2022-08-01T15:42:05;137.32;;;15.85;;
7108;SDS011;29079;41.930;25.558;2022-08-01T15:44:38;220.48;;;24.50;;
7108;SDS011;29079;41.930;25.558;2022-08-01T15:47:24;13.25;;;4.20;;
7108;SDS011;29079;41.930;25.558;2022-08-01T15:49:57;11.57;;;3.78;;
7108;SDS011;29079;41.930;25.558;2022-08-01T15:52:30;14.13;;;2.92;;
7108;SDS011;29079;41.930;25.558;2022-08-01T15:55:01;4.53;;;3.60;;
7108;SDS011;29079;41.930;25.558;2022-08-01T15:57:35;5.05;;;3.15;;
7108;SDS011;29079;41.930;25.558;2022-08-01T16:00:20;16.20;;;4.50;;
7108;SDS011;29079;41.930;25.558;2022-08-01T16:03:06;4.78;;;3.58;;
7108;SDS011;29079;41.930;25.558;2022-08-01T16:05:37;37.83;;;8.80;;
7108;SDS011;29079;41.930;25.558;2022-08-01T16:08:13;11.93;;;9.63;;
7108;SDS011;29079;41.930;25.558;2022-08-01T16:10:44;8.43;;;5.57;;
7108;SDS011;29079;41.930;25.558;2022-08-01T16:13:17;6.55;;;5.22;;